Airport View

Enter AWOS ICAO identifier for current METAR.

ex. KFNL

KVJI 192355Z AUTO 00000KT 10SM CLR 15/09 A3022 RMK AO2 T01540093 10227 20154

20 Oct 2020 00:00

Frequency: 128.125

Phone: 276-628-2940

Other Area AWOS: K0A9 - KTRI - KJFZ - KLNP

TAF KTRI 191720Z 1918/2018 VRB03KT P6SM SCT150 SCT250